createdAt,value
2022-12-31T00:00:08.469Z,986.75
2022-12-31T00:00:18.847Z,986.74
2022-12-31T00:00:29.235Z,986.67
2022-12-31T00:00:39.557Z,986.74
2022-12-31T00:00:49.866Z,986.73
2022-12-31T00:01:00.134Z,986.72
2022-12-31T00:01:10.365Z,986.76
2022-12-31T00:01:20.628Z,986.70
2022-12-31T00:01:30.884Z,986.70
2022-12-31T00:01:41.180Z,986.66
2022-12-31T00:01:51.468Z,986.64
2022-12-31T00:02:01.917Z,986.62
2022-12-31T00:02:12.143Z,986.66
2022-12-31T00:02:22.344Z,986.66
2022-12-31T00:02:32.504Z,986.67
2022-12-31T00:02:42.949Z,986.67
2022-12-31T00:02:53.224Z,986.68
2022-12-31T00:03:03.709Z,986.67
2022-12-31T00:03:13.997Z,986.66
2022-12-31T00:03:24.193Z,986.68
2022-12-31T00:03:34.542Z,986.71
2022-12-31T00:03:44.774Z,986.70
2022-12-31T00:03:55.099Z,986.71
2022-12-31T00:04:05.331Z,986.71
2022-12-31T00:04:15.595Z,986.67
2022-12-31T00:04:25.853Z,986.66
2022-12-31T00:04:36.119Z,986.70
2022-12-31T00:04:46.379Z,986.69
2022-12-31T00:04:56.644Z,986.66
2022-12-31T00:05:06.911Z,986.69
2022-12-31T00:05:17.172Z,986.69
2022-12-31T00:05:27.451Z,986.66
2022-12-31T00:05:37.700Z,986.65
2022-12-31T00:05:47.965Z,986.66
2022-12-31T00:05:58.228Z,986.66
2022-12-31T00:06:08.506Z,986.65
2022-12-31T00:06:18.762Z,986.67
2022-12-31T00:06:29.034Z,986.73
2022-12-31T00:06:39.293Z,986.73
2022-12-31T00:06:49.551Z,986.75
2022-12-31T00:06:59.819Z,986.73
2022-12-31T00:07:10.078Z,986.71
2022-12-31T00:07:20.342Z,986.70
2022-12-31T00:09:24.269Z,986.68
2022-12-31T00:09:32.992Z,986.71
2022-12-31T00:09:43.255Z,986.65
2022-12-31T00:09:53.515Z,986.68
2022-12-31T00:10:03.801Z,986.69
2022-12-31T00:10:14.043Z,986.67
2022-12-31T00:10:24.323Z,986.64
2022-12-31T00:10:34.618Z,986.64
2022-12-31T00:10:44.854Z,986.66
2022-12-31T00:10:55.119Z,986.66
2022-12-31T00:11:05.379Z,986.66
2022-12-31T00:11:15.650Z,986.64
2022-12-31T00:11:25.916Z,986.63
2022-12-31T00:11:36.183Z,986.61
2022-12-31T00:11:46.436Z,986.60
2022-12-31T00:11:56.705Z,986.65
2022-12-31T00:12:06.966Z,986.61
2022-12-31T00:12:17.227Z,986.64
2022-12-31T00:12:27.497Z,986.64
2022-12-31T00:12:37.752Z,986.67
2022-12-31T00:12:48.019Z,986.75
2022-12-31T00:12:58.280Z,986.74
2022-12-31T00:13:08.556Z,986.64
2022-12-31T00:13:18.813Z,986.62
2022-12-31T00:13:29.077Z,986.65
2022-12-31T00:13:39.356Z,986.63
2022-12-31T00:13:49.613Z,986.61
2022-12-31T00:13:59.879Z,986.62
2022-12-31T00:14:10.141Z,986.69
2022-12-31T00:14:20.403Z,986.69
2022-12-31T00:14:30.662Z,986.60
2022-12-31T00:14:40.929Z,986.62
2022-12-31T00:14:51.198Z,986.64
2022-12-31T00:15:01.455Z,986.63
2022-12-31T00:15:11.723Z,986.67
2022-12-31T00:15:21.985Z,986.66
2022-12-31T00:15:32.228Z,986.66
2022-12-31T00:15:42.507Z,986.63
2022-12-31T00:15:52.758Z,986.65
2022-12-31T00:16:06.883Z,986.63
2022-12-31T00:16:14.240Z,986.63
2022-12-31T00:16:23.665Z,986.68
2022-12-31T00:16:33.955Z,986.66
2022-12-31T00:16:44.260Z,986.62
2022-12-31T00:16:54.544Z,986.65
2022-12-31T00:17:04.824Z,986.67
2022-12-31T00:17:15.153Z,986.66
2022-12-31T00:17:25.399Z,986.64
2022-12-31T00:17:35.629Z,986.63
2022-12-31T00:17:45.899Z,986.63
2022-12-31T00:17:56.168Z,986.67
2022-12-31T00:18:06.454Z,986.76
2022-12-31T00:18:16.712Z,986.77
2022-12-31T00:18:26.995Z,986.60
2022-12-31T00:18:37.244Z,986.68
2022-12-31T00:18:47.534Z,986.72
2022-12-31T00:18:57.795Z,986.72
2022-12-31T00:19:08.063Z,986.70
2022-12-31T00:19:18.343Z,986.68
2022-12-31T00:19:28.627Z,986.71
2022-12-31T00:19:38.907Z,986.74
2022-12-31T00:19:49.177Z,986.68
2022-12-31T00:19:59.461Z,986.64
2022-12-31T00:20:09.731Z,986.64
2022-12-31T00:20:19.997Z,986.62
2022-12-31T00:20:30.268Z,986.65
2022-12-31T00:20:40.523Z,986.71
2022-12-31T00:20:50.853Z,986.72
2022-12-31T00:21:01.085Z,986.73
2022-12-31T00:21:11.359Z,986.72
2022-12-31T00:21:21.644Z,986.71
2022-12-31T00:21:31.904Z,986.74
2022-12-31T00:21:42.169Z,986.75
2022-12-31T00:21:52.434Z,986.69
2022-12-31T00:22:02.709Z,986.73
2022-12-31T00:22:13.008Z,986.66
2022-12-31T00:22:23.242Z,986.67
2022-12-31T00:22:33.505Z,986.68
2022-12-31T00:22:43.767Z,986.70
2022-12-31T00:22:54.038Z,986.71
2022-12-31T00:23:04.296Z,986.72
2022-12-31T00:23:14.565Z,986.72
2022-12-31T00:23:24.823Z,986.72
2022-12-31T00:23:35.078Z,986.72
2022-12-31T00:23:45.357Z,986.69
2022-12-31T00:23:55.616Z,986.71
2022-12-31T00:24:05.889Z,986.72
2022-12-31T00:24:16.142Z,986.71
2022-12-31T00:24:26.433Z,986.71
2022-12-31T00:24:36.694Z,986.65
2022-12-31T00:24:46.967Z,986.70
2022-12-31T00:24:57.225Z,986.70
2022-12-31T00:25:07.487Z,986.69
2022-12-31T00:25:17.763Z,986.69
2022-12-31T00:25:28.026Z,986.70
2022-12-31T00:25:38.289Z,986.73
2022-12-31T00:25:48.559Z,986.71
2022-12-31T00:25:58.810Z,986.74
2022-12-31T00:26:09.069Z,986.69
2022-12-31T00:26:19.357Z,986.71
2022-12-31T00:26:29.600Z,986.71
2022-12-31T00:26:39.859Z,986.68
2022-12-31T00:26:50.118Z,986.65
2022-12-31T00:27:00.391Z,986.65
2022-12-31T00:27:10.641Z,986.69
2022-12-31T00:27:20.917Z,986.74
2022-12-31T00:27:31.169Z,986.73
2022-12-31T00:27:41.432Z,986.66
2022-12-31T00:27:51.699Z,986.61
2022-12-31T00:28:01.974Z,986.63
2022-12-31T00:28:12.236Z,986.64
2022-12-31T00:28:22.516Z,986.65
2022-12-31T00:28:32.771Z,986.70
2022-12-31T00:28:43.032Z,986.68
2022-12-31T00:28:53.298Z,986.71
2022-12-31T00:29:03.567Z,986.69
2022-12-31T00:29:13.819Z,986.69
2022-12-31T00:29:24.086Z,986.67
2022-12-31T00:29:34.353Z,986.70
2022-12-31T00:29:44.611Z,986.67
2022-12-31T00:29:58.240Z,986.61
2022-12-31T00:30:06.085Z,986.67
2022-12-31T00:30:15.488Z,986.72
2022-12-31T00:30:25.740Z,986.70
2022-12-31T00:30:36.045Z,986.74
2022-12-31T00:30:46.347Z,986.72
2022-12-31T00:30:56.622Z,986.67
2022-12-31T00:31:06.915Z,986.67
2022-12-31T00:31:17.192Z,986.69
2022-12-31T00:31:27.421Z,986.74
2022-12-31T00:31:37.682Z,986.65
2022-12-31T00:31:47.947Z,986.69
2022-12-31T00:31:58.215Z,986.68
2022-12-31T00:32:08.478Z,986.66
2022-12-31T00:32:18.734Z,986.71
2022-12-31T00:32:28.989Z,986.70
2022-12-31T00:32:39.255Z,986.69
2022-12-31T00:32:49.517Z,986.71
2022-12-31T00:32:59.778Z,986.74
2022-12-31T00:33:10.075Z,986.76
2022-12-31T00:33:20.318Z,986.72
2022-12-31T00:33:30.588Z,986.75
2022-12-31T00:33:40.870Z,986.78
2022-12-31T00:33:51.111Z,986.73
2022-12-31T00:34:01.376Z,986.76
2022-12-31T00:34:11.637Z,986.69
2022-12-31T00:34:21.985Z,986.72
2022-12-31T00:34:32.203Z,986.73
2022-12-31T00:34:42.466Z,986.71
2022-12-31T00:34:52.732Z,986.72
2022-12-31T00:35:03.007Z,986.70
2022-12-31T00:35:13.264Z,986.72
2022-12-31T00:35:23.517Z,986.74
2022-12-31T00:35:33.784Z,986.73
2022-12-31T00:35:44.041Z,986.73
2022-12-31T00:35:54.304Z,986.72
2022-12-31T00:36:04.564Z,986.73
2022-12-31T00:36:14.840Z,986.73
2022-12-31T00:36:25.104Z,986.77
2022-12-31T00:36:35.389Z,986.77
2022-12-31T00:36:45.631Z,986.73
2022-12-31T00:36:55.890Z,986.76
2022-12-31T00:37:06.175Z,986.77
2022-12-31T00:37:16.426Z,986.76
2022-12-31T00:37:26.687Z,986.74
2022-12-31T00:37:36.950Z,986.77
2022-12-31T00:37:47.214Z,986.75
2022-12-31T00:37:57.480Z,986.81
2022-12-31T00:38:07.754Z,986.81
2022-12-31T00:38:18.026Z,986.77
2022-12-31T00:38:28.292Z,986.77
2022-12-31T00:38:38.544Z,986.78
2022-12-31T00:38:48.812Z,986.74
2022-12-31T00:38:59.088Z,986.75
2022-12-31T00:39:09.329Z,986.77
2022-12-31T00:39:19.601Z,986.81
2022-12-31T00:39:29.880Z,986.78
2022-12-31T00:39:40.128Z,986.73
2022-12-31T00:39:50.389Z,986.76
2022-12-31T00:40:00.670Z,986.77
2022-12-31T00:40:10.910Z,986.73
2022-12-31T00:40:21.209Z,986.74
2022-12-31T00:40:31.492Z,986.79
2022-12-31T00:40:41.761Z,986.76
2022-12-31T00:40:52.056Z,986.75
2022-12-31T00:41:02.308Z,986.73
2022-12-31T00:41:12.565Z,986.71
2022-12-31T00:41:22.827Z,986.71
2022-12-31T00:41:33.081Z,986.72
2022-12-31T00:41:43.372Z,986.74
2022-12-31T00:41:53.610Z,986.74
2022-12-31T00:42:03.871Z,986.72
2022-12-31T00:42:14.143Z,986.71
2022-12-31T00:42:24.404Z,986.71
2022-12-31T00:42:34.661Z,986.75
2022-12-31T00:42:44.920Z,986.71
2022-12-31T00:42:55.182Z,986.71
2022-12-31T00:43:05.471Z,986.64
2022-12-31T00:43:15.721Z,986.74
2022-12-31T00:43:25.984Z,986.59
2022-12-31T00:43:36.247Z,986.58
2022-12-31T00:43:46.509Z,986.71
2022-12-31T00:43:56.775Z,986.62
2022-12-31T00:44:07.040Z,986.64
2022-12-31T00:44:17.298Z,986.64
2022-12-31T00:44:27.558Z,986.63
2022-12-31T00:44:37.822Z,986.68
2022-12-31T00:44:48.085Z,986.65
2022-12-31T00:44:58.357Z,986.64
2022-12-31T00:45:08.613Z,986.65
2022-12-31T00:45:18.887Z,986.64
2022-12-31T00:45:29.137Z,986.65
2022-12-31T00:45:39.402Z,986.65
2022-12-31T00:45:49.792Z,986.65
2022-12-31T00:46:00.127Z,986.66
2022-12-31T00:46:10.425Z,986.66
2022-12-31T00:46:20.821Z,986.62
2022-12-31T00:46:31.128Z,986.60
2022-12-31T00:48:38.330Z,986.65
2022-12-31T00:48:48.588Z,986.66
2022-12-31T00:48:58.865Z,986.65
2022-12-31T00:49:09.130Z,986.70
2022-12-31T00:49:19.394Z,986.64
2022-12-31T00:49:29.637Z,986.65
2022-12-31T00:49:39.925Z,986.68
2022-12-31T00:49:50.160Z,986.67
2022-12-31T00:50:00.432Z,986.66
2022-12-31T00:50:10.691Z,986.71
2022-12-31T00:50:20.976Z,986.64
2022-12-31T00:50:31.237Z,986.71
2022-12-31T00:50:41.539Z,986.71
2022-12-31T00:50:51.771Z,986.65
2022-12-31T00:51:02.037Z,986.66
2022-12-31T00:51:12.301Z,986.63
2022-12-31T00:51:22.571Z,986.63
2022-12-31T00:51:32.826Z,986.64
2022-12-31T00:51:43.087Z,986.67
2022-12-31T00:51:53.351Z,986.67
2022-12-31T00:52:03.613Z,986.66
2022-12-31T00:52:13.879Z,986.65
2022-12-31T00:52:24.138Z,986.62
2022-12-31T00:52:34.398Z,986.65
2022-12-31T00:52:44.659Z,986.61
2022-12-31T00:52:54.926Z,986.62
2022-12-31T00:53:05.199Z,986.63
2022-12-31T00:53:15.459Z,986.63
2022-12-31T00:53:25.734Z,986.65
2022-12-31T00:53:36.023Z,986.65
2022-12-31T00:53:46.272Z,986.67
2022-12-31T00:53:56.556Z,986.68
2022-12-31T00:54:06.787Z,986.69
2022-12-31T00:54:17.055Z,986.69
2022-12-31T00:54:27.315Z,986.71
2022-12-31T00:54:37.594Z,986.71
2022-12-31T00:54:47.844Z,986.70
2022-12-31T00:54:58.102Z,986.71
2022-12-31T00:55:08.361Z,986.73
2022-12-31T00:55:18.634Z,986.74
2022-12-31T00:55:28.892Z,986.74
2022-12-31T00:55:39.178Z,986.72
2022-12-31T00:55:49.417Z,986.71
2022-12-31T00:55:59.677Z,986.72
2022-12-31T00:56:09.940Z,986.70
2022-12-31T00:56:20.218Z,986.70
2022-12-31T00:56:30.468Z,986.70
2022-12-31T00:56:40.725Z,986.68
2022-12-31T00:56:50.989Z,986.65
2022-12-31T00:57:01.248Z,986.66
2022-12-31T00:57:11.515Z,986.68
2022-12-31T00:57:21.790Z,986.69
2022-12-31T00:57:32.060Z,986.66
2022-12-31T00:57:42.322Z,986.66
2022-12-31T00:57:52.585Z,986.64
2022-12-31T00:58:02.864Z,986.66
2022-12-31T00:58:13.138Z,986.67
2022-12-31T00:58:23.396Z,986.71
2022-12-31T00:58:33.662Z,986.67
2022-12-31T00:58:43.925Z,986.69
2022-12-31T00:58:54.194Z,986.71
2022-12-31T00:59:04.442Z,986.70
2022-12-31T00:59:14.707Z,986.71
2022-12-31T00:59:24.985Z,986.69
2022-12-31T00:59:35.233Z,986.70
2022-12-31T00:59:45.497Z,986.72
2022-12-31T00:59:55.759Z,986.72
2022-12-31T01:00:06.021Z,986.73
2022-12-31T01:00:16.295Z,986.69
2022-12-31T01:00:26.554Z,986.68
2022-12-31T01:00:36.812Z,986.70
2022-12-31T01:00:47.075Z,986.69
2022-12-31T01:00:57.425Z,986.68
2022-12-31T01:01:07.805Z,986.66
2022-12-31T01:01:18.253Z,986.66
2022-12-31T01:01:28.519Z,986.63
2022-12-31T01:01:38.786Z,986.65
2022-12-31T01:01:48.962Z,986.65
2022-12-31T01:01:59.382Z,986.67
2022-12-31T01:02:09.898Z,986.69
2022-12-31T01:02:20.072Z,986.70
2022-12-31T01:02:30.375Z,986.72
2022-12-31T01:02:40.676Z,986.65
2022-12-31T01:02:50.826Z,986.62
2022-12-31T01:03:01.271Z,986.62
2022-12-31T01:03:11.408Z,986.66
2022-12-31T01:03:21.772Z,986.68
2022-12-31T01:03:32.044Z,986.66
2022-12-31T01:03:42.321Z,986.67
2022-12-31T01:03:52.566Z,986.62
2022-12-31T01:04:02.839Z,986.62
2022-12-31T01:04:13.115Z,986.61
2022-12-31T01:04:23.351Z,986.65
2022-12-31T01:04:33.623Z,986.66
2022-12-31T01:04:43.891Z,986.66
2022-12-31T01:04:54.160Z,986.65
2022-12-31T01:05:04.428Z,986.66
2022-12-31T01:05:14.711Z,986.66
2022-12-31T01:05:24.960Z,986.61
2022-12-31T01:05:35.229Z,986.70
2022-12-31T01:05:45.486Z,986.68
2022-12-31T01:05:55.769Z,986.68
2022-12-31T01:06:06.022Z,986.68
2022-12-31T01:06:16.286Z,986.71
2022-12-31T01:06:26.556Z,986.75
2022-12-31T01:06:36.819Z,986.68
2022-12-31T01:06:47.069Z,986.71
2022-12-31T01:06:57.323Z,986.71
2022-12-31T01:07:07.591Z,986.67
2022-12-31T01:07:17.849Z,986.65
2022-12-31T01:07:28.109Z,986.69
2022-12-31T01:07:38.385Z,986.69
2022-12-31T01:07:48.636Z,986.67
2022-12-31T01:07:58.903Z,986.64
2022-12-31T01:08:09.183Z,986.72
2022-12-31T01:08:19.439Z,986.77
2022-12-31T01:08:29.723Z,986.76
2022-12-31T01:08:39.993Z,986.72
2022-12-31T01:08:50.253Z,986.75
2022-12-31T01:09:00.512Z,986.72
2022-12-31T01:09:10.769Z,986.71
2022-12-31T01:09:21.040Z,986.67
2022-12-31T01:09:31.303Z,986.72
2022-12-31T01:09:41.582Z,986.73
2022-12-31T01:09:51.824Z,986.75
2022-12-31T01:10:02.126Z,986.76
2022-12-31T01:10:12.380Z,986.75
2022-12-31T01:10:22.638Z,986.72
2022-12-31T01:10:32.897Z,986.72
2022-12-31T01:10:43.157Z,986.71
2022-12-31T01:10:53.451Z,986.74
2022-12-31T01:11:03.742Z,986.75
2022-12-31T01:11:13.996Z,986.75
2022-12-31T01:11:24.288Z,986.71
2022-12-31T01:11:34.537Z,986.67
2022-12-31T01:11:44.800Z,986.66
2022-12-31T01:11:55.069Z,986.71
2022-12-31T01:12:05.315Z,986.70
2022-12-31T01:12:15.577Z,986.71
2022-12-31T01:12:25.837Z,986.69
2022-12-31T01:12:36.121Z,986.64
2022-12-31T01:12:46.377Z,986.62
2022-12-31T01:12:56.638Z,986.62
2022-12-31T01:13:06.917Z,986.62
2022-12-31T01:13:17.186Z,986.61
2022-12-31T01:13:27.448Z,986.65
2022-12-31T01:13:37.717Z,986.60
2022-12-31T01:13:47.977Z,986.66
2022-12-31T01:13:58.235Z,986.54
2022-12-31T01:14:08.505Z,986.55
2022-12-31T01:14:18.766Z,986.58
2022-12-31T01:14:29.025Z,986.61
2022-12-31T01:14:39.292Z,986.65
2022-12-31T01:14:49.546Z,986.70
2022-12-31T01:14:59.808Z,986.70
2022-12-31T01:15:10.071Z,986.68
2022-12-31T01:15:20.346Z,986.74
2022-12-31T01:15:30.706Z,986.79
2022-12-31T01:15:41.042Z,986.87
2022-12-31T01:15:51.347Z,986.81
2022-12-31T01:16:01.634Z,986.80
2022-12-31T01:16:12.004Z,986.80
2022-12-31T01:16:22.247Z,986.83
2022-12-31T01:16:32.498Z,986.81
2022-12-31T01:16:42.769Z,986.86
2022-12-31T01:16:53.070Z,986.87
2022-12-31T01:17:03.328Z,986.86
2022-12-31T01:17:13.586Z,986.90
2022-12-31T01:17:23.852Z,986.89
2022-12-31T01:17:34.109Z,986.83
2022-12-31T01:17:44.374Z,986.81
2022-12-31T01:17:54.636Z,986.87
2022-12-31T01:18:04.909Z,986.91
2022-12-31T01:18:15.189Z,986.90
2022-12-31T01:18:25.487Z,986.87
2022-12-31T01:18:35.715Z,986.89
2022-12-31T01:18:45.982Z,986.86
2022-12-31T01:18:56.245Z,986.87
2022-12-31T01:19:06.509Z,986.87
2022-12-31T01:19:16.760Z,986.91
2022-12-31T01:19:27.049Z,986.93
2022-12-31T01:19:37.285Z,987.00
2022-12-31T01:19:47.558Z,986.89
2022-12-31T01:19:57.808Z,986.91
2022-12-31T01:20:08.073Z,986.91
2022-12-31T01:20:18.366Z,986.89
2022-12-31T01:20:28.606Z,986.95
2022-12-31T01:20:38.855Z,986.94
2022-12-31T01:20:49.118Z,986.89
2022-12-31T01:20:59.379Z,986.85
2022-12-31T01:21:09.645Z,986.81
2022-12-31T01:21:19.907Z,986.83
2022-12-31T01:21:30.173Z,986.76
2022-12-31T01:21:40.446Z,986.79
2022-12-31T01:21:50.692Z,986.84
2022-12-31T01:22:00.965Z,986.80
2022-12-31T01:22:11.212Z,986.83
2022-12-31T01:22:21.483Z,986.88
2022-12-31T01:22:31.746Z,986.83
2022-12-31T01:22:42.003Z,986.78
2022-12-31T01:22:52.264Z,986.82
2022-12-31T01:23:02.536Z,986.82
2022-12-31T01:23:12.866Z,986.81
2022-12-31T01:23:23.089Z,986.88
2022-12-31T01:23:33.357Z,986.88
2022-12-31T01:23:43.616Z,986.86
2022-12-31T01:23:53.877Z,986.84
2022-12-31T01:24:04.138Z,986.86
2022-12-31T01:24:14.399Z,986.88
2022-12-31T01:24:24.664Z,986.90
2022-12-31T01:24:34.927Z,986.91
2022-12-31T01:24:45.218Z,986.88
2022-12-31T01:24:55.447Z,986.87
2022-12-31T01:25:05.719Z,986.85
2022-12-31T01:25:15.981Z,986.85
2022-12-31T01:25:26.243Z,986.88
2022-12-31T01:25:36.511Z,986.85
2022-12-31T01:25:46.778Z,986.86
2022-12-31T01:25:57.041Z,986.86
2022-12-31T01:26:07.296Z,986.87
2022-12-31T01:26:21.265Z,986.89
2022-12-31T01:26:28.758Z,986.90
2022-12-31T01:26:43.748Z,986.91
2022-12-31T01:26:53.760Z,986.89
2022-12-31T01:27:00.251Z,986.80
2022-12-31T01:27:10.736Z,986.85
2022-12-31T01:27:21.237Z,986.84
2022-12-31T01:27:41.369Z,986.82
2022-12-31T01:27:41.934Z,986.82
2022-12-31T01:27:52.753Z,986.83
2022-12-31T01:28:03.229Z,986.79
2022-12-31T01:28:23.664Z,986.82
2022-12-31T01:28:24.913Z,986.79
2022-12-31T01:28:41.738Z,986.81
2022-12-31T01:28:57.451Z,986.83
2022-12-31T01:29:03.744Z,986.80
2022-12-31T01:31:28.974Z,986.82
2022-12-31T01:31:37.493Z,986.79
2022-12-31T01:31:47.758Z,986.83
2022-12-31T01:31:58.015Z,986.83
2022-12-31T01:32:08.280Z,986.84
2022-12-31T01:32:18.539Z,986.82
2022-12-31T01:32:28.796Z,986.82
2022-12-31T01:32:39.060Z,986.82
2022-12-31T01:32:49.334Z,986.80
2022-12-31T01:32:59.601Z,986.75
2022-12-31T01:33:09.870Z,986.71
2022-12-31T01:33:20.145Z,986.75
2022-12-31T01:33:30.402Z,986.74
2022-12-31T01:33:40.669Z,986.70
2022-12-31T01:33:50.962Z,986.70
2022-12-31T01:34:01.193Z,986.70
2022-12-31T01:34:11.477Z,986.70
2022-12-31T01:34:21.716Z,986.72
2022-12-31T01:34:31.976Z,986.72
2022-12-31T01:34:42.242Z,986.72
2022-12-31T01:34:52.515Z,986.74
2022-12-31T01:35:02.776Z,986.71
2022-12-31T01:35:13.029Z,986.74
2022-12-31T01:35:23.288Z,986.75
2022-12-31T01:35:33.547Z,986.71
2022-12-31T01:35:43.812Z,986.71
2022-12-31T01:35:54.075Z,986.70
2022-12-31T01:36:04.335Z,986.64
2022-12-31T01:36:16.072Z,986.70
2022-12-31T01:36:26.223Z,986.70
2022-12-31T01:36:35.283Z,986.74
2022-12-31T01:36:45.538Z,986.74
2022-12-31T01:36:55.817Z,986.76
2022-12-31T01:37:06.072Z,986.77
2022-12-31T01:37:16.326Z,986.76
2022-12-31T01:37:26.591Z,986.74
2022-12-31T01:37:36.852Z,986.74
2022-12-31T01:37:47.131Z,986.76
2022-12-31T01:37:57.378Z,986.75
2022-12-31T01:38:07.665Z,986.73
2022-12-31T01:38:17.929Z,986.77
2022-12-31T01:38:28.184Z,986.75
2022-12-31T01:38:38.447Z,986.76
2022-12-31T01:38:48.702Z,986.80
2022-12-31T01:38:58.978Z,986.75
2022-12-31T01:39:09.262Z,986.76
2022-12-31T01:39:19.497Z,986.78
2022-12-31T01:39:29.746Z,986.73
2022-12-31T01:39:40.021Z,986.73
2022-12-31T01:39:50.301Z,986.77
2022-12-31T01:40:00.542Z,986.75
2022-12-31T01:40:10.808Z,986.78
2022-12-31T01:40:21.077Z,986.73
2022-12-31T01:40:31.344Z,986.80
2022-12-31T01:40:41.606Z,986.79
2022-12-31T01:40:51.867Z,986.84
2022-12-31T01:41:02.131Z,986.85
2022-12-31T01:41:12.394Z,986.83
2022-12-31T01:41:22.662Z,986.83
2022-12-31T01:41:32.921Z,986.89
2022-12-31T01:41:43.188Z,986.80
2022-12-31T01:41:53.458Z,986.81
2022-12-31T01:42:03.730Z,986.81
2022-12-31T01:42:14.005Z,986.85
2022-12-31T01:42:24.255Z,986.84
2022-12-31T01:42:34.530Z,986.85
2022-12-31T01:42:44.794Z,986.86
2022-12-31T01:42:55.053Z,986.78
2022-12-31T01:43:05.326Z,986.83
2022-12-31T01:43:15.595Z,986.84
2022-12-31T01:43:25.864Z,986.81
2022-12-31T01:43:36.134Z,986.81
2022-12-31T01:43:46.383Z,986.84
2022-12-31T01:43:56.647Z,986.87
2022-12-31T01:44:06.911Z,986.88
2022-12-31T01:44:17.180Z,986.87
2022-12-31T01:44:27.438Z,986.87
2022-12-31T01:44:37.707Z,986.93
2022-12-31T01:44:47.971Z,986.85
2022-12-31T01:44:58.231Z,986.80
2022-12-31T01:45:08.489Z,986.86
2022-12-31T01:45:18.755Z,986.92
2022-12-31T01:45:29.014Z,986.92
2022-12-31T01:45:39.282Z,986.94
2022-12-31T01:45:49.549Z,986.94
2022-12-31T01:45:59.841Z,986.90
2022-12-31T01:46:10.157Z,986.89
2022-12-31T01:46:20.452Z,986.88
2022-12-31T01:46:30.784Z,986.90
2022-12-31T01:46:41.105Z,986.88
2022-12-31T01:46:51.374Z,986.92
2022-12-31T01:47:01.625Z,986.90
2022-12-31T01:47:11.884Z,986.95
2022-12-31T01:47:22.148Z,986.96
2022-12-31T01:47:32.408Z,986.95
2022-12-31T01:47:42.689Z,986.97
2022-12-31T01:47:52.993Z,986.91
2022-12-31T01:48:03.212Z,986.93
2022-12-31T01:48:13.492Z,986.96
2022-12-31T01:48:23.764Z,987.00
2022-12-31T01:48:34.016Z,987.04
2022-12-31T01:48:44.281Z,987.06
2022-12-31T01:48:54.556Z,987.02
2022-12-31T01:49:04.815Z,986.98
2022-12-31T01:49:15.064Z,986.98
2022-12-31T01:49:25.356Z,987.03
2022-12-31T01:49:35.588Z,987.02
2022-12-31T01:49:45.861Z,987.00
2022-12-31T01:49:56.107Z,987.02
2022-12-31T01:50:06.372Z,986.98
2022-12-31T01:50:16.652Z,987.01
2022-12-31T01:50:26.921Z,987.07
2022-12-31T01:50:37.165Z,987.05
2022-12-31T01:50:47.432Z,987.07
2022-12-31T01:50:57.693Z,987.00
2022-12-31T01:51:07.957Z,987.10
2022-12-31T01:51:18.218Z,986.98
2022-12-31T01:51:28.487Z,987.01
2022-12-31T01:51:38.743Z,986.95
2022-12-31T01:51:49.015Z,986.93
2022-12-31T01:51:59.267Z,986.99
2022-12-31T01:52:09.530Z,987.01
2022-12-31T01:52:19.798Z,987.03
2022-12-31T01:52:30.060Z,987.03
2022-12-31T01:52:40.324Z,987.03
2022-12-31T01:52:50.581Z,987.05
2022-12-31T01:53:00.844Z,987.00
2022-12-31T01:53:11.129Z,986.94
2022-12-31T01:53:21.388Z,986.95
2022-12-31T01:53:31.673Z,987.00
2022-12-31T01:53:41.922Z,986.97
2022-12-31T01:53:52.185Z,986.95
2022-12-31T01:54:02.452Z,986.93
2022-12-31T01:54:12.718Z,986.93
2022-12-31T01:54:22.972Z,986.92
2022-12-31T01:54:33.242Z,986.97
2022-12-31T01:54:43.500Z,986.97
2022-12-31T01:54:53.784Z,986.95
2022-12-31T01:55:04.026Z,986.95
2022-12-31T01:55:14.298Z,987.02
2022-12-31T01:55:24.555Z,987.07
2022-12-31T01:55:34.833Z,987.10
2022-12-31T01:55:45.079Z,987.10
2022-12-31T01:55:55.331Z,987.13
2022-12-31T01:56:05.606Z,987.11
2022-12-31T01:56:15.855Z,987.08
2022-12-31T01:56:26.127Z,987.08
2022-12-31T01:56:36.392Z,987.04
2022-12-31T01:56:46.652Z,987.06
2022-12-31T01:56:56.924Z,987.06
2022-12-31T01:57:07.202Z,987.12
2022-12-31T01:57:17.454Z,987.14
2022-12-31T01:57:27.715Z,987.11
2022-12-31T01:57:37.986Z,987.15
2022-12-31T01:57:48.239Z,987.16
2022-12-31T01:57:58.507Z,987.13
2022-12-31T01:58:08.779Z,987.11
2022-12-31T01:58:19.053Z,987.11
2022-12-31T01:58:29.297Z,987.13
2022-12-31T01:58:39.568Z,987.16
2022-12-31T01:58:49.822Z,987.15
2022-12-31T01:59:00.096Z,987.15
2022-12-31T01:59:10.351Z,987.16
2022-12-31T01:59:20.620Z,987.11
2022-12-31T01:59:30.890Z,987.10
2022-12-31T01:59:41.152Z,987.13
2022-12-31T01:59:51.414Z,987.18
2022-12-31T02:00:01.712Z,987.20
2022-12-31T02:00:12.019Z,987.13
2022-12-31T02:00:22.286Z,987.20
2022-12-31T02:00:32.531Z,987.10
2022-12-31T02:00:42.778Z,987.13
2022-12-31T02:00:53.039Z,987.15
2022-12-31T02:01:03.372Z,987.19
2022-12-31T02:01:13.638Z,987.25
2022-12-31T02:01:23.959Z,987.21
2022-12-31T02:01:34.278Z,987.05
2022-12-31T02:01:44.687Z,987.00
2022-12-31T02:01:55.108Z,987.05
2022-12-31T02:02:05.351Z,987.07
2022-12-31T02:02:15.530Z,987.12
2022-12-31T02:02:25.929Z,987.18
2022-12-31T02:02:36.197Z,987.20
2022-12-31T02:02:46.547Z,987.26
2022-12-31T02:02:56.820Z,987.19
2022-12-31T02:03:07.182Z,987.20
2022-12-31T02:03:17.486Z,987.20
2022-12-31T02:03:27.833Z,987.17
2022-12-31T02:03:38.067Z,987.13
2022-12-31T02:03:48.320Z,987.17
2022-12-31T02:03:58.581Z,987.18
2022-12-31T02:04:08.842Z,987.17
2022-12-31T02:04:19.110Z,987.14
2022-12-31T02:04:29.365Z,987.10
2022-12-31T02:04:39.633Z,987.08
2022-12-31T02:04:49.891Z,987.06
2022-12-31T02:05:00.220Z,987.07
2022-12-31T02:05:10.439Z,987.07
2022-12-31T02:05:20.705Z,987.05
2022-12-31T02:05:30.983Z,987.04
2022-12-31T02:05:41.239Z,986.98
2022-12-31T02:05:51.496Z,987.04
2022-12-31T02:06:01.762Z,986.95
2022-12-31T02:06:12.019Z,987.02
2022-12-31T02:06:22.279Z,987.05
2022-12-31T02:06:32.547Z,987.09
2022-12-31T02:06:42.809Z,987.09
2022-12-31T02:06:53.072Z,987.11
2022-12-31T02:07:03.333Z,987.12
2022-12-31T02:07:13.587Z,987.06
2022-12-31T02:07:23.895Z,987.05
2022-12-31T02:07:34.122Z,987.10
2022-12-31T02:07:44.380Z,987.10
2022-12-31T02:07:54.644Z,987.11
2022-12-31T02:08:04.951Z,987.13
2022-12-31T02:08:15.191Z,987.17
2022-12-31T02:08:25.455Z,987.16
2022-12-31T02:08:41.772Z,987.24
2022-12-31T02:08:47.242Z,987.21
2022-12-31T02:08:56.655Z,987.15
2022-12-31T02:09:06.919Z,987.17
2022-12-31T02:09:17.180Z,987.12
2022-12-31T02:09:27.448Z,987.09
2022-12-31T02:09:37.708Z,987.02
2022-12-31T02:09:47.969Z,987.19
2022-12-31T02:09:58.245Z,987.13
2022-12-31T02:10:08.497Z,987.01
2022-12-31T02:10:18.759Z,987.07
2022-12-31T02:10:29.013Z,987.12
2022-12-31T02:10:39.275Z,987.15
2022-12-31T02:10:49.554Z,987.18
2022-12-31T02:10:59.808Z,987.18
2022-12-31T02:11:10.073Z,987.20
2022-12-31T02:11:20.339Z,987.17
2022-12-31T02:11:30.595Z,987.23
2022-12-31T02:11:40.857Z,987.18
2022-12-31T02:11:51.119Z,987.14
2022-12-31T02:12:01.386Z,987.14
2022-12-31T02:12:11.647Z,987.18
2022-12-31T02:12:21.920Z,987.20
2022-12-31T02:12:32.169Z,987.19
2022-12-31T02:12:42.435Z,987.25
2022-12-31T02:12:52.691Z,987.24
2022-12-31T02:13:02.952Z,987.28
2022-12-31T02:13:13.233Z,987.22
2022-12-31T02:13:23.521Z,987.40
2022-12-31T02:13:33.754Z,987.20
2022-12-31T02:13:44.013Z,987.28
2022-12-31T02:13:58.346Z,987.28
2022-12-31T02:14:04.580Z,987.20
2022-12-31T02:14:14.839Z,987.18
2022-12-31T02:14:25.107Z,987.41